.
WxDataArchive / Data Records for 2007-09-12
2007-09-11 September 2007 2007-09-13

Data Records for Wednesday, 12 September 2007

Time	Temp	Chill	HIndex	Humid	Dewpt	 Wind 	HiWind	WindDir	Rain 	Barom 
-----	----	-----	------	-----	-----	------	------	-------	-----	----- 
00:00	53.5	53.5	53.5	77	46.5	0	0	---	0.00	29.917 
00:05	53.6	53.6	53.6	77	46.6	0	0	---	0.00	29.917 
00:10	53.6	53.6	53.6	77	46.6	0	0	---	0.00	29.917 
00:15	53.6	53.6	53.6	77	46.6	0	0	---	0.00	29.917 
00:20	53.5	53.5	53.5	78	46.8	0	0	---	0.00	29.917 
00:25	53.2	53.2	53.2	78	46.5	0	0	---	0.00	29.917 
00:30	53.1	53.1	53.1	78	46.4	0	0	---	0.00	29.922 
00:35	52.8	52.8	52.8	79	46.5	0	0	---	0.00	29.922 
00:40	52.3	52.3	52.3	80	46.3	0	0	---	0.00	29.922 
00:45	52.0	52.0	52.0	81	46.4	0	0	---	0.00	29.932 
00:50	51.7	51.7	51.7	82	46.4	0	0	---	0.00	29.932 
00:55	51.4	51.4	51.4	83	46.4	0	0	---	0.00	29.932 
01:00	51.1	51.1	51.1	84	46.4	0	0	---	0.00	29.933 
01:05	51.0	51.0	51.0	85	46.7	0	0	---	0.00	29.933 
01:10	50.7	50.7	50.7	86	46.7	0	0	---	0.00	29.933 
01:15	50.5	50.5	50.5	87	46.8	0	0	---	0.00	29.932 
01:20	50.4	50.4	50.4	87	46.7	0	0	---	0.00	29.932 
01:25	50.2	50.2	50.2	88	46.8	0	0	---	0.00	29.932 
01:30	50.1	50.1	50.1	88	46.7	0	0	---	0.00	29.936 
01:35	49.9	49.9	49.9	88	46.5	0	0	---	0.00	29.936 
01:40	49.8	49.8	49.8	88	46.4	0	0	---	0.00	29.936 
01:45	49.8	49.8	49.8	89	46.7	0	0	---	0.00	29.939 
01:50	49.6	49.6	49.6	89	46.5	0	0	---	0.00	29.939 
01:55	49.6	49.6	49.6	90	46.8	0	0	---	0.00	29.939 
02:00	49.5	49.5	49.5	90	46.7	0	0	---	0.00	29.938 
02:05	49.4	49.4	49.4	90	46.6	0	0	---	0.00	29.938 
02:10	49.2	49.2	49.2	90	46.4	0	0	---	0.00	29.938 
02:15	49.2	49.2	49.2	90	46.4	0	0	---	0.00	29.941 
02:20	49.1	49.1	49.1	90	46.3	0	0	---	0.00	29.941 
02:25	48.9	48.9	48.9	90	46.1	0	0	---	0.00	29.941 
02:30	48.8	48.8	48.8	90	46.0	0	0	---	0.00	29.943 
02:35	48.6	48.6	48.6	90	45.8	0	0	---	0.00	29.943 
02:40	48.5	48.5	48.5	91	46.0	0	0	---	0.00	29.943 
02:45	48.3	48.3	48.3	91	45.8	0	0	---	0.00	29.948 
02:50	48.3	48.3	48.3	91	45.8	0	0	---	0.00	29.948 
02:55	48.2	48.2	48.2	91	45.7	0	0	---	0.00	29.948 
03:00	48.0	48.0	48.0	91	45.5	0	0	---	0.00	29.953 
03:05	48.0	48.0	48.0	92	45.8	0	0	---	0.00	29.953 
03:10	48.0	48.0	48.0	92	45.8	0	0	---	0.00	29.953 
03:15	48.0	48.0	48.0	92	45.8	0	0	---	0.00	29.957 
03:20	47.9	47.9	47.9	92	45.7	0	0	---	0.00	29.957 
03:25	47.7	47.7	47.7	92	45.5	0	0	---	0.00	29.957 
03:30	47.7	47.7	47.7	92	45.5	0	0	---	0.00	29.963 
03:35	47.6	47.6	47.6	92	45.4	0	0	---	0.00	29.963 
03:40	47.4	47.4	47.4	92	45.2	0	0	---	0.00	29.963 
03:45	47.3	47.3	47.3	92	45.1	0	0	---	0.00	29.964 
03:50	47.3	47.3	47.3	92	45.1	0	0	---	0.00	29.964 
03:55	47.1	47.1	47.1	92	44.9	0	0	---	0.00	29.964 
04:00	47.0	47.0	47.0	93	45.1	0	0	---	0.00	29.966 
04:05	46.8	46.8	46.8	93	44.9	0	0	---	0.00	29.966 
04:10	46.8	46.8	46.8	93	44.9	0	0	---	0.00	29.966 
04:15	46.7	46.7	46.7	93	44.8	0	0	---	0.00	29.973 
04:20	46.5	46.5	46.5	93	44.6	0	0	---	0.00	29.973 
04:25	46.5	46.5	46.5	93	44.6	0	0	---	0.00	29.973 
04:30	46.5	46.5	46.5	94	44.9	0	0	---	0.00	29.978 
04:35	46.5	46.5	46.5	94	44.9	0	0	---	0.00	29.978 
04:40	46.4	46.4	46.4	94	44.8	0	0	---	0.00	29.978 
04:45	46.2	46.2	46.2	94	44.6	0	0	---	0.00	29.981 
04:50	46.2	46.2	46.2	94	44.6	0	0	---	0.00	29.981 
04:55	46.1	46.1	46.1	94	44.5	0	0	---	0.00	29.981 
05:00	46.1	46.1	46.1	94	44.5	0	0	---	0.00	29.982 
05:05	46.0	46.0	46.0	94	44.4	0	0	---	0.00	29.982 
05:10	45.8	45.8	45.8	94	44.2	0	0	---	0.00	29.982 
05:15	45.8	45.8	45.8	94	44.2	0	0	---	0.00	29.987 
05:20	45.7	45.7	45.7	95	44.4	0	0	---	0.00	29.987 
05:25	45.7	45.7	45.7	95	44.4	0	0	---	0.00	29.987 
05:30	45.7	45.7	45.7	95	44.4	0	0	---	0.00	29.991 
05:35	45.7	45.7	45.7	95	44.4	0	0	---	0.00	29.991 
05:40	45.7	45.7	45.7	95	44.4	0	0	---	0.00	29.991 
05:45	45.7	45.7	45.7	95	44.4	0	0	---	0.00	30.000 
05:50	45.5	45.5	45.5	95	44.2	0	0	---	0.00	30.000 
05:55	45.5	45.5	45.5	95	44.2	0	0	---	0.00	30.000 
06:00	45.5	45.5	45.5	95	44.2	0	0	---	0.00	30.007 
06:05	45.4	45.4	45.4	95	44.1	0	0	---	0.00	30.007 
06:10	45.4	45.4	45.4	95	44.1	0	0	---	0.00	30.007 
06:15	45.4	45.4	45.4	96	44.3	0	0	---	0.00	30.019 
06:20	45.2	45.2	45.2	96	44.1	0	0	---	0.00	30.019 
06:25	45.2	45.2	45.2	96	44.1	0	0	---	0.00	30.019 
06:30	45.2	45.2	45.2	96	44.1	0	0	---	0.00	30.023 
06:35	45.2	45.2	45.2	96	44.1	0	0	---	0.00	30.023 
06:40	45.4	45.4	45.4	96	44.3	0	0	---	0.00	30.023 
06:45	45.5	45.5	45.5	96	44.4	0	0	---	0.00	30.029 
06:50	45.7	45.7	45.7	96	44.6	0	0	---	0.00	30.029 
06:55	45.7	45.7	45.7	96	44.6	0	0	---	0.00	30.029 
07:00	45.8	45.8	45.8	96	44.7	0	0	---	0.00	30.031 
07:05	46.0	46.0	46.0	96	44.9	0	0	---	0.00	30.031 
07:10	46.4	46.4	46.4	96	45.3	0	0	---	0.00	30.031 
07:15	47.1	47.1	47.1	96	46.0	0	0	---	0.00	30.037 
07:20	48.0	48.0	48.0	97	47.2	0	0	---	0.00	30.037 
07:25	49.2	49.2	49.2	97	48.4	0	0	---	0.00	30.037 
07:30	50.5	50.5	50.5	97	49.7	0	0	---	0.00	30.038 
07:35	50.7	50.7	50.7	97	49.9	0	0	---	0.00	30.038 
07:40	51.1	51.1	51.1	97	50.3	0	0	---	0.00	30.038 
07:45	51.7	51.7	51.7	94	50.0	0	1	315	0.00	30.043 
07:50	52.5	52.5	52.5	89	49.4	0	1	315	0.00	30.043 
07:55	53.1	53.1	53.1	85	48.7	0	1	315	0.00	30.043 
08:00	53.6	53.6	53.6	83	48.6	0	1	315	0.00	30.044 
08:05	54.1	54.1	54.1	79	47.7	0	1	315	0.00	30.044 
08:10	54.5	54.5	54.5	78	47.8	0	1	315	0.00	30.044 
08:15	54.8	54.8	54.8	77	47.7	0	1	315	0.00	30.048 
08:20	55.1	55.1	55.1	74	47.0	0	1	315	0.00	30.048 
08:25	55.6	55.6	55.6	75	47.8	0	1	315	0.00	30.048 
08:30	55.7	55.7	55.7	73	47.2	0	2	22	0.00	30.050 
08:35	56.2	56.2	56.2	75	48.4	0	1	22	0.00	30.050 
08:40	56.5	56.5	56.5	72	47.6	0	3	68	0.00	30.050 
08:45	56.9	56.9	56.9	69	46.8	0	2	68	0.00	30.058 
08:50	57.3	57.3	57.3	66	46.0	1	3	68	0.00	30.058 
08:55	58.1	58.1	58.1	65	46.4	0	1	68	0.00	30.058 
09:00	58.6	58.6	58.6	64	46.5	0	3	338	0.00	30.064 
09:05	59.0	59.0	59.0	63	46.4	0	3	0	0.00	30.064 
09:10	59.3	59.3	59.3	60	45.4	0	3	0	0.00	30.064 
09:15	59.6	59.6	59.6	61	46.1	0	2	292	0.00	30.072 
09:20	60.2	60.2	60.2	61	46.7	0	3	338	0.00	30.072 
09:25	61.0	61.0	61.0	59	46.6	0	2	22	0.00	30.072 
09:30	61.2	61.2	61.2	59	46.8	1	4	45	0.00	30.073 
09:35	60.9	60.9	60.9	58	46.0	0	3	45	0.00	30.073 
09:40	60.9	60.9	60.9	58	46.0	1	2	0	0.00	30.073 
09:45	61.0	61.0	61.0	58	46.1	0	3	292	0.00	30.074 
09:50	61.3	61.3	61.3	59	46.8	1	3	45	0.00	30.074 
09:55	61.5	61.5	61.5	55	45.2	1	2	0	0.00	30.074 
10:00	61.3	61.3	61.3	55	45.0	1	2	338	0.00	30.076 
10:05	61.2	61.2	61.2	57	45.8	0	2	338	0.00	30.076 
10:10	61.5	61.5	61.5	58	46.6	0	2	338	0.00	30.076 
10:15	62.1	62.1	62.1	53	44.8	1	3	90	0.00	30.081 
10:20	62.3	62.3	62.3	56	46.4	1	3	90	0.00	30.081 
10:25	61.3	61.3	61.3	55	45.0	0	3	315	0.00	30.081 
10:30	61.3	61.3	61.3	54	44.5	0	3	315	0.00	30.081 
10:35	62.4	62.4	62.4	58	47.4	0	2	338	0.00	30.081 
10:40	62.7	62.7	62.7	57	47.2	0	2	338	0.00	30.081 
10:45	62.6	62.6	62.6	56	46.7	0	2	292	0.00	30.077 
10:50	62.9	62.9	62.9	52	45.0	1	4	90	0.00	30.077 
10:55	63.1	63.1	63.1	54	46.2	1	3	90	0.00	30.077 
11:00	63.2	63.2	63.2	54	46.3	1	3	315	0.00	30.078 
11:05	63.5	63.5	63.5	56	47.5	1	2	270	0.00	30.078 
11:10	62.7	62.7	62.7	55	46.3	0	2	270	0.00	30.078 
11:15	62.1	62.1	62.1	57	46.7	0	2	270	0.00	30.081 
11:20	62.0	62.0	62.0	58	47.0	0	1	270	0.00	30.081 
11:25	62.3	62.3	62.3	57	46.9	0	1	248	0.00	30.081 
11:30	62.4	62.4	62.4	57	47.0	0	1	315	0.00	30.084 
11:35	63.2	63.2	63.2	53	45.8	0	2	292	0.00	30.084 
11:40	64.8	64.8	64.8	53	47.3	1	3	112	0.00	30.084 
11:45	65.6	65.6	65.6	50	46.5	1	3	45	0.00	30.079 
11:50	65.8	65.8	65.8	50	46.6	1	3	225	0.00	30.079 
11:55	65.0	65.0	65.0	53	47.4	0	1	225	0.00	30.079 
12:00	64.2	64.2	64.2	53	46.7	0	1	225	0.00	30.084 
12:05	63.4	63.4	63.4	53	46.0	0	2	292	0.00	30.084 
12:10	62.9	62.9	62.9	56	47.0	0	1	292	0.00	30.084 
12:15	63.1	63.1	63.1	55	46.7	0	2	292	0.00	30.087 
12:20	63.2	63.2	63.2	56	47.2	0	1	338	0.00	30.087 
12:25	63.2	63.2	63.2	54	46.3	0	2	270	0.00	30.087 
12:30	63.1	63.1	63.1	58	48.1	0	1	270	0.00	30.084 
12:35	63.1	63.1	63.1	57	47.6	0	2	270	0.00	30.084 
12:40	63.2	63.2	63.2	55	46.8	0	2	270	0.00	30.084 
12:45	63.2	63.2	63.2	54	46.3	0	2	270	0.00	30.084 
12:50	63.1	63.1	63.1	58	48.1	1	3	270	0.00	30.084 
12:55	62.7	62.7	62.7	56	46.8	1	2	270	0.00	30.084 
13:00	63.4	63.4	63.4	58	48.4	0	2	270	0.00	30.088 
13:05	64.3	64.3	64.3	57	48.7	0	2	270	0.00	30.088 
13:10	65.6	65.6	65.6	61	51.8	0	2	270	0.00	30.088 
13:15	66.4	66.4	66.4	53	48.7	1	2	248	0.00	30.079 
13:20	66.8	66.8	66.8	50	47.6	1	3	292	0.00	30.079 
13:25	66.6	66.6	66.6	52	48.4	1	4	292	0.00	30.079 
13:30	66.8	66.8	66.8	52	48.6	1	2	292	0.00	30.077 
13:35	66.8	66.8	66.8	49	47.0	1	2	338	0.00	30.077 
13:40	67.4	67.4	67.4	50	48.1	0	2	338	0.00	30.077 
13:45	67.6	67.6	67.6	46	46.1	1	2	0	0.00	30.075 
13:50	67.4	67.4	67.4	46	45.9	1	4	112	0.00	30.075 
13:55	67.4	67.4	67.4	49	47.6	1	3	90	0.00	30.075 
14:00	66.4	66.4	66.4	49	46.7	0	2	292	0.00	30.076 
14:05	66.4	66.4	66.4	50	47.2	0	3	68	0.00	30.076 
14:10	67.3	67.3	67.3	56	51.1	0	3	292	0.00	30.076 
14:15	67.4	67.4	67.4	50	48.1	1	3	270	0.00	30.075 
14:20	67.3	67.3	67.3	47	46.4	1	3	270	0.00	30.075 
14:25	66.4	66.4	66.4	50	47.2	0	1	270	0.00	30.075 
14:30	66.6	66.6	66.6	52	48.4	0	1	270	0.00	30.075 
14:35	66.8	66.8	66.8	50	47.6	0	2	270	0.00	30.075 
14:40	66.0	66.0	66.0	50	46.8	0	2	270	0.00	30.075 
14:45	66.0	66.0	66.0	57	50.3	0	1	315	0.00	30.075 
14:50	66.3	66.3	66.3	48	46.0	0	3	338	0.00	30.075 
14:55	66.3	66.3	66.3	50	47.1	0	2	338	0.00	30.075 
15:00	66.1	66.1	66.1	48	45.8	0	2	338	0.00	30.076 
15:05	65.6	65.6	65.6	50	46.5	0	1	338	0.00	30.076 
15:10	66.3	66.3	66.3	47	45.5	0	2	338	0.00	30.076 
15:15	66.8	66.8	66.8	53	49.1	0	2	338	0.00	30.076 
15:20	67.1	67.1	67.1	48	46.7	1	3	338	0.00	30.076 
15:25	67.3	67.3	67.3	50	48.0	0	1	22	0.00	30.076 
15:30	67.8	67.8	67.8	52	49.5	0	2	22	0.00	30.072 
15:35	67.6	67.6	67.6	47	46.6	1	3	22	0.00	30.072 
15:40	67.4	67.4	67.4	47	46.5	0	1	68	0.00	30.072 
15:45	67.1	67.1	67.1	48	46.7	0	2	45	0.00	30.069 
15:50	66.8	66.8	66.8	48	46.5	0	1	45	0.00	30.069 
15:55	66.8	66.8	66.8	49	47.0	0	1	45	0.00	30.069 
16:00	66.9	66.9	66.9	54	49.7	0	1	45	0.00	30.064 
16:05	66.8	66.8	66.8	50	47.6	0	1	45	0.00	30.064 
16:10	66.6	66.6	66.6	50	47.4	1	3	315	0.00	30.064 
16:15	66.3	66.3	66.3	50	47.1	0	1	315	0.00	30.065 
16:20	66.1	66.1	66.1	49	46.4	0	1	315	0.00	30.065 
16:25	66.1	66.1	66.1	47	45.3	0	1	315	0.00	30.065 
16:30	66.1	66.1	66.1	49	46.4	0	1	315	0.00	30.064 
16:35	66.1	66.1	66.1	51	47.4	0	1	315	0.00	30.064 
16:40	66.1	66.1	66.1	50	46.9	0	1	315	0.00	30.064 
16:45	66.3	66.3	66.3	51	47.6	0	1	315	0.00	30.066 
16:50	66.0	66.0	66.0	51	47.3	0	1	315	0.00	30.066 
16:55	66.0	66.0	66.0	50	46.8	0	1	315	0.00	30.066 
17:00	66.0	66.0	66.0	50	46.8	0	1	315	0.00	30.067 
17:05	66.0	66.0	66.0	48	45.7	0	0	---	0.00	30.067 
17:10	66.1	66.1	66.1	51	47.4	0	1	315	0.00	30.067 
17:15	66.1	66.1	66.1	51	47.4	0	0	---	0.00	30.068 
17:20	65.8	65.8	65.8	49	46.1	0	1	315	0.00	30.068 
17:25	65.6	65.6	65.6	50	46.5	0	1	315	0.00	30.068 
17:30	65.6	65.6	65.6	50	46.5	0	0	---	0.00	30.070 
17:35	65.5	65.5	65.5	51	46.9	0	1	315	0.00	30.070 
17:40	65.3	65.3	65.3	51	46.7	0	0	---	0.00	30.070 
17:45	65.2	65.2	65.2	52	47.1	0	0	---	0.00	30.075 
17:50	64.8	64.8	64.8	52	46.8	0	0	---	0.00	30.075 
17:55	64.7	64.7	64.7	54	47.7	0	0	---	0.00	30.075 
18:00	64.5	64.5	64.5	55	48.0	0	0	---	0.00	30.078 
18:05	64.3	64.3	64.3	53	46.8	0	0	---	0.00	30.078 
18:10	64.3	64.3	64.3	54	47.3	0	1	315	0.00	30.078 
18:15	64.2	64.2	64.2	55	47.7	0	0	---	0.00	30.081 
18:20	64.2	64.2	64.2	56	48.2	0	0	---	0.00	30.081 
18:25	64.0	64.0	64.0	56	48.0	0	0	---	0.00	30.081 
18:30	63.9	63.9	63.9	56	47.9	0	0	---	0.00	30.081 
18:35	63.7	63.7	63.7	57	48.2	0	0	---	0.00	30.081 
18:40	63.4	63.4	63.4	57	47.9	0	0	---	0.00	30.081 
18:45	63.2	63.2	63.2	57	47.7	0	0	---	0.00	30.084 
18:50	63.1	63.1	63.1	59	48.5	0	0	---	0.00	30.084 
18:55	62.7	62.7	62.7	61	49.1	0	0	---	0.00	30.084 
19:00	62.6	62.6	62.6	62	49.4	0	0	---	0.00	30.084 
19:05	62.1	62.1	62.1	62	48.9	0	0	---	0.00	30.084 
19:10	61.6	61.6	61.6	62	48.4	0	0	---	0.00	30.084 
19:15	61.2	61.2	61.2	62	48.1	0	0	---	0.00	30.082 
19:20	60.9	60.9	60.9	64	48.6	0	0	---	0.00	30.082 
19:25	60.4	60.4	60.4	67	49.4	0	0	---	0.00	30.082 
19:30	59.9	59.9	59.9	69	49.7	0	0	---	0.00	30.086 
19:35	59.5	59.5	59.5	69	49.3	0	0	---	0.00	30.086 
19:40	59.0	59.0	59.0	70	49.2	0	0	---	0.00	30.086 
19:45	58.6	58.6	58.6	72	49.6	0	0	---	0.00	30.090 
19:50	58.1	58.1	58.1	73	49.5	0	0	---	0.00	30.090 
19:55	57.8	57.8	57.8	75	49.9	0	0	---	0.00	30.090 
20:00	57.3	57.3	57.3	76	49.8	0	0	---	0.00	30.094 
20:05	57.0	57.0	57.0	77	49.9	0	0	---	0.00	30.094 
20:10	56.7	56.7	56.7	78	49.9	0	0	---	0.00	30.094 
20:15	56.5	56.5	56.5	79	50.1	0	0	---	0.00	30.092 
20:20	56.2	56.2	56.2	80	50.1	0	0	---	0.00	30.092 
20:25	55.9	55.9	55.9	81	50.2	0	0	---	0.00	30.092 
20:30	55.7	55.7	55.7	82	50.3	0	0	---	0.00	30.095 
20:35	55.4	55.4	55.4	83	50.3	0	0	---	0.00	30.095 
20:40	55.3	55.3	55.3	84	50.5	0	0	---	0.00	30.095 
20:45	55.1	55.1	55.1	85	50.7	0	0	---	0.00	30.094 
20:50	54.8	54.8	54.8	86	50.7	0	0	---	0.00	30.094 
20:55	54.7	54.7	54.7	87	50.9	0	0	---	0.00	30.094 
21:00	54.5	54.5	54.5	88	51.0	0	0	---	0.00	30.092 
21:05	54.4	54.4	54.4	88	50.9	0	0	---	0.00	30.093 
21:10	54.2	54.2	54.2	89	51.0	0	0	---	0.00	30.093 
21:15	54.1	54.1	54.1	89	50.9	0	0	---	0.00	30.093 
21:20	53.9	53.9	53.9	89	50.7	0	0	---	0.00	30.093 
21:25	53.8	53.8	53.8	90	50.9	0	0	---	0.00	30.093 
21:30	53.5	53.5	53.5	90	50.6	0	0	---	0.00	30.093 
21:35	53.3	53.3	53.3	90	50.4	0	0	---	0.00	30.092 
21:40	53.1	53.1	53.1	90	50.2	0	0	---	0.00	30.090 
21:45	52.9	52.9	52.9	90	50.0	0	0	---	0.00	30.089 
21:50	52.8	52.8	52.8	90	49.9	0	0	---	0.00	30.089 
21:55	52.6	52.6	52.6	91	50.0	0	0	---	0.00	30.091 
22:00	52.5	52.5	52.5	91	49.9	0	0	---	0.00	30.089 
22:05	52.3	52.3	52.3	91	49.8	0	0	---	0.00	30.090 
22:10	52.2	52.2	52.2	91	49.7	0	0	---	0.00	30.090 
22:15	52.0	52.0	52.0	91	49.5	0	0	---	0.00	30.091 
22:20	52.0	52.0	52.0	92	49.7	0	0	---	0.00	30.090 
22:25	51.9	51.9	51.9	92	49.6	0	0	---	0.00	30.089 
22:30	51.7	51.7	51.7	92	49.5	0	0	---	0.00	30.091 
22:35	51.6	51.6	51.6	92	49.4	0	0	---	0.00	30.093 
22:40	51.4	51.4	51.4	92	49.2	0	0	---	0.00	30.094 
22:45	51.3	51.3	51.3	92	49.1	0	0	---	0.00	30.094 
22:50	51.1	51.1	51.1	92	48.9	0	0	---	0.00	30.094 
22:55	51.1	51.1	51.1	92	48.9	0	0	---	0.00	30.094 
23:00	51.1	51.1	51.1	92	48.9	0	0	---	0.00	30.094 
23:05	51.0	51.0	51.0	93	49.0	0	0	---	0.00	30.094 
23:10	51.0	51.0	51.0	93	49.0	0	1	315	0.00	30.095 
23:15	51.1	51.1	51.1	93	49.1	0	1	315	0.00	30.096 
23:20	51.3	51.3	51.3	93	49.3	0	0	---	0.00	30.097 
23:25	51.6	51.6	51.6	92	49.4	0	1	315	0.00	30.097 
23:30	51.6	51.6	51.6	92	49.4	0	1	315	0.00	30.097 
23:35	51.7	51.7	51.7	91	49.2	0	1	315	0.00	30.099 
23:40	51.9	51.9	51.9	91	49.4	0	1	315	0.00	30.101 
23:45	52.0	52.0	52.0	89	48.9	0	2	22	0.00	30.098 
23:50	52.3	52.3	52.3	88	48.9	0	2	22	0.00	30.098 
23:55	52.5	52.5	52.5	88	49.0	0	1	22	0.00	30.100 

CoCoRaHS
IN-AL-39
A2 Web Hosting
Creative Commons License
GoDaddy
Look for:

loaded 2017-10-16 18:35:18 • last modified 2010-11-18 10:43:29
Privacy PolicyDisclaimer
• wx.awcolley.com is powered by PmWiki v.2002016 •
• all content (unless otherwise noted) © 2017 A W Colley